Řízení letového provozu České republiky  
Aktualizace dat:  29.08.2016 05:16:04 UTC English version
   METEO Zobrazení stránky:  29.08.2016 05:16:51 UTC  
vysvětlivky
METAR EDDB 290450Z 24006KT CAVOK 18/14 Q1013 NOSIG=
METAR EDDC 290450Z 23003KT 200V270 9999 BKN024 19/17 Q1015 NOSIG=
METAR EDDE 290450Z 22005KT 9999 FEW020 17/15 Q1017 NOSIG=
METAR EDDF 290450Z 21003KT 9999 FEW042 SCT240 16/14 Q1017 NOSIG=
METAR EDDM 290450Z 24005KT 210V300 CAVOK 18/16 Q1019 NOSIG=
METAR EDDN 290450Z 28004KT 9999 FEW040 BKN100 19/15 Q1018 NOSIG=
METAR EDDP 290450Z 27006KT 9999 FEW040 BKN064 BKN300 19/16 Q1015 NOSIG=
METAR EDDT 290450Z 26010KT CAVOK 18/14 Q1013 NOSIG=
METAR EDQM 290450Z 30003KT 9999 BKN033 16/13 Q1018=
METAR EPBY 290500Z 26006KT CAVOK 19/16 Q1012 =
METAR EPGD 290500Z 27009KT CAVOK 19/15 Q1009 =
METAR EPKK 290500Z 00000KT CAVOK 17/14 Q1015 =
METAR EPKT 290500Z 21012KT CAVOK 21/14 Q1014 =
METAR EPLL 290500Z 23004KT CAVOK 18/15 Q1012 =
METAR EPPO 290500Z 29008KT CAVOK 19/17 Q1012 =
METAR EPRZ 290500Z VRB01KT CAVOK 18/14 Q1015 =
METAR EPWA 290500Z 17005KT CAVOK 18/15 Q1011 NOSIG=
METAR EPWR 290500Z 27006KT CAVOK 19/16 Q1014 =
METAR LHBP 290500Z VRB01KT 9999 MIFG NSC 16/14 Q1017 NOSIG=
METAR LHSM 290445Z 00000KT 0500 FG NSC 14/13 Q1016=
METAR LKCV 290500Z VRB02KT CAVOK 20/16 Q1015 NOSIG=
METAR LKKB 290500Z VRB01KT 9999 FEW035CB SCT080 20/17 Q1015 NOSIG =
METAR LKKU 290504Z 31002KT CAVOK 17/14 Q1015=
METAR LKKV 290500Z VRB01KT 9999 MIFG NSC 14/14 Q1017 RMK REG QNH 1013=
SPECI LKLN 290500Z AUTO 22005KT 9999 +RA FEW012 BKN035 OVC060 18/17 Q1017=
METAR LKMT 290500Z 24006KT CAVOK 20/15 Q1015 NOSIG RMK REG QNH 1013=
METAR LKNA 290500Z 10004KT CAVOK 18/14 Q1017 NOSIG=
METAR LKPD 290500Z 13002KT CAVOK 17/15 Q1015 NOSIG =
METAR LKPR 290500Z 24006KT 9999 FEW040CB 19/16 Q1015 NOSIG RMK REG QNH 1013=
METAR LKTB 290500Z VRB02KT CAVOK 19/14 Q1015 NOSIG RMK REG QNH 1013=
METAR LKVO 290500Z 32003KT 270V040 CAVOK 20/17 Q1015=
METAR LOWI 290450Z 25003KT 9999 FEW060TCU SCT070 BKN300 16/15 Q1021 NOSIG=
METAR LOWL 290450Z 30005KT 9999 SCT050 SCT130 20/18 Q1017 TEMPO FM0630 27015G25KT TSRA FEW040CB BKN060=
METAR LOWS 290450Z VRB06KT 9999 FEW045 FEW050CB BKN065 20/15 Q1019 TEMPO 30010KT=
METAR LOWW 290450Z VRB02KT CAVOK 18/15 Q1015 NOSIG=
METAR LZIB 290500Z 04004KT CAVOK 17/15 Q1016 NOSIG=
METAR LZKZ 290500Z VRB02KT CAVOK 16/14 Q1017 NOSIG=
METAR LZPP 290500Z 01003KT CAVOK 15/14 Q1016=
METAR LZSL 290500Z 00000KT 0100 R36/0225N FG BKN001 13/12 Q1018=
METAR LZTT 290500Z 04003KT 340V060 CAVOK 11/09 Q1019 NOSIG=
METAR LZZI 290500Z 00000KT 9999 FEW004 14/13 Q1017=